Al-Rastan, Syria

9:02 AM EET on February 07, 2016 (GMT +0200)
Bassel Al-Assad International | | Change Station
CLOSE
Current Station
Airport
Location: Lattakia,
Elevation: 154 ft
Nearby Weather Stations

Elev 154 ft 35.40 °N, 35.95 °E | Updated 2 minutes ago

Scattered Clouds
Scattered Clouds
50 °F
Feels Like 50 °F
N
2
Wind Variable Wind from Variable

Today
High -- | Low -- °F
--% Chance of Precip.
Yesterday
High -- | Low -- °F
Precip. -- in
Pressure 29.92 in
Visibility 6.2 miles
Clouds Few 2600 ft
Scattered Clouds 3000 ft
Scattered Clouds 10000 ft
Dew Point 45 °F
Humidity 82%
Rainfall 0.00 in
Snow Depth Not available.
6:27 AM 5:07 PM
Waning Crescent, 2% visible
METAR OSLK 070700Z VRB02KT 9999 FEW026 SCT030 SCT100 10/07 Q1013
Pressure 29.92 in
Visibility 6.2 miles
Clouds Few 2600 ft
Scattered Clouds 3000 ft
Scattered Clouds 10000 ft
Dew Point 45 °F
Humidity 82%
Rainfall 0.00 in
Snow Depth Not available.
6:27 AM 5:07 PM
Waning Crescent, 2% visible
METAR OSLK 070700Z VRB02KT 9999 FEW026 SCT030 SCT100 10/07 Q1013

10-Day Weather Forecast

No radar image for this location.
×

Almanac

Astronomy

Feb. 07, 2016 Rise Set
Actual Time
Civil Twilight
Nautical Twilight
Astronomical Twilight
Moon
Length of Visible Light
Length of Day
Tomorrow will be .
, % of the Moon is Illuminated

Today's Extremes

Country Highs Country Lows

Community

WunderPhotos

Upload Photos

1,891,174 photos uploaded!

WunderBlog® & News

Nearby

Air Quality

  Air Quality AQ Index Pollutant
Not available.

Snow Depth

Station Depth Elevation

Earthquake Activity

City Distance Mag. Time & Date
Minimum magnitude displayed is 2.5.

Coastal Water Temperatures

Place Temperature

Stations

Nearby Weather Stations

Station Location Temp. Windchill Dew Point Humidity Wind Precip. Elev Updated Type